Time;durP1;ratioP1;P1;durP2;ratioP2;P2;SDS_P1;SDS_P2;PMS_P1;PMS_P2;Temp;Humidity;BMP_temperature;BMP_pressure;BME280_temperature;BME280_humidity;BME280_pressure;Samples;Min_cycle;Max_cycle;Signal;HPM_P1;HPM_P2
2023/11/25 00:00:16;;;;;;;;;4.00;3.00;;;;;5.90;61.28;101722.28;5060109;28;45401;-58
2023/11/25 00:02:41;;;;;;;;;5.33;5.33;;;;;5.90;61.24;101717.00;5065297;28;45561;-58
2023/11/25 00:05:07;;;;;;;;;4.00;3.67;;;;;5.88;61.43;101713.50;5041488;28;45300;-58
2023/11/25 00:07:33;;;;;;;;;3.33;2.33;;;;;5.87;61.50;101709.13;5059836;28;45426;-58
2023/11/25 00:09:58;;;;;;;;;4.00;2.33;;;;;5.86;61.45;101708.22;5059602;28;45277;-58
2023/11/25 00:12:24;;;;;;;;;3.33;2.33;;;;;5.86;61.74;101712.66;5041443;28;45332;-59
2023/11/25 00:14:49;;;;;;;;;8.00;3.67;;;;;5.83;61.60;101705.66;5059996;28;45447;-58
2023/11/25 00:17:15;;;;;;;;;2.67;2.67;;;;;5.79;61.84;101704.81;5065544;28;74401;-58
2023/11/25 00:19:40;;;;;;;;;2.67;2.33;;;;;5.78;61.64;101700.44;5059284;28;45438;-60
2023/11/25 00:22:05;;;;;;;;;9.00;5.33;;;;;5.77;62.36;101703.97;5040840;28;45394;-58
2023/11/25 00:24:31;;;;;;;;;4.00;2.33;;;;;5.76;61.94;101702.25;5055474;28;45666;-57
2023/11/25 00:26:56;;;;;;;;;1.00;1.00;;;;;5.74;62.12;101698.75;5065460;28;46382;-58
2023/11/25 00:29:22;;;;;;;;;3.00;3.00;;;;;5.74;62.17;101700.53;5066046;28;45359;-58
2023/11/25 00:31:49;;;;;;;;;4.67;1.67;;;;;5.74;61.95;101697.88;5063183;28;68931;-58
2023/11/25 00:34:14;;;;;;;;;6.67;3.33;;;;;5.72;61.95;101703.19;5072731;28;46632;-58
2023/11/25 00:36:40;;;;;;;;;2.67;2.67;;;;;5.70;62.47;101699.69;5049137;28;45431;-59
2023/11/25 00:39:06;;;;;;;;;4.00;3.33;;;;;5.70;62.29;101707.59;5059385;28;72649;-57
2023/11/25 00:41:32;;;;;;;;;7.67;3.00;;;;;5.71;62.13;101713.75;5059328;28;45327;-59
2023/11/25 00:43:58;;;;;;;;;4.67;3.33;;;;;5.70;62.59;101699.69;5059159;28;45576;-59
2023/11/25 00:46:23;;;;;;;;;3.00;3.00;;;;;5.70;62.56;101701.47;5059492;28;46145;-59
2023/11/25 00:48:49;;;;;;;;;3.33;3.33;;;;;5.70;62.54;101698.84;5062016;28;45217;-59
2023/11/25 00:51:14;;;;;;;;;5.00;3.67;;;;;5.69;62.38;101700.56;5059266;28;45471;-59
2023/11/25 00:53:39;;;;;;;;;3.00;3.00;;;;;5.69;62.75;101694.44;5058125;28;69274;-59
2023/11/25 00:56:06;;;;;;;;;3.00;2.33;;;;;5.68;62.66;101697.97;5062502;28;74808;-59
2023/11/25 00:58:32;;;;;;;;;1.00;1.00;;;;;5.67;62.47;101691.81;5058441;28;45646;-59
2023/11/25 01:00:58;;;;;;;;;3.00;2.00;;;;;5.66;63.00;101700.63;5057203;28;45766;-59
2023/11/25 01:03:24;;;;;;;;;2.00;2.00;;;;;5.65;63.08;101698.88;5057461;28;45382;-59
2023/11/25 01:05:49;;;;;;;;;3.33;2.33;;;;;5.63;63.21;101696.28;5092228;27;47053;-59
2023/11/25 01:08:15;;;;;;;;;1.67;1.67;;;;;5.61;63.15;101700.69;5059414;28;71845;-59
2023/11/25 01:10:40;;;;;;;;;3.00;2.00;;;;;5.61;62.86;101702.47;5058287;28;45488;-58
2023/11/25 01:13:06;;;;;;;;;3.00;1.33;;;;;5.59;62.77;101702.50;5058379;28;45481;-59
2023/11/25 01:15:32;;;;;;;;;1.67;1.67;;;;;5.58;63.06;101707.78;5057834;28;46096;-59
2023/11/25 01:17:57;;;;;;;;;0.00;0.00;;;;;5.56;63.36;101705.16;5057431;28;45331;-59
2023/11/25 01:20:23;;;;;;;;;3.00;1.33;;;;;5.55;63.28;101707.84;5058469;28;45387;-59
2023/11/25 01:22:49;;;;;;;;;2.00;2.00;;;;;5.53;62.68;101713.13;5058337;28;45366;-59
2023/11/25 01:25:15;;;;;;;;;2.33;1.00;;;;;5.52;63.56;101714.03;5029940;28;47219;-59
2023/11/25 01:27:40;;;;;;;;;3.00;2.00;;;;;5.52;63.38;101719.31;5058980;28;45618;-59
2023/11/25 01:30:06;;;;;;;;;1.00;1.00;;;;;5.51;63.49;101711.41;5057514;28;45315;-59
2023/11/25 01:32:32;;;;;;;;;1.00;1.00;;;;;5.50;63.35;101709.66;5087165;27;45888;-59
2023/11/25 01:34:57;;;;;;;;;4.00;2.00;;;;;5.51;63.21;101716.69;5058388;28;45599;-59
2023/11/25 01:37:26;;;;;;;;;4.00;2.00;;;;;5.49;63.45;101710.56;5057989;28;51949;-59
2023/11/25 01:39:52;;;;;;;;;1.67;0.33;;;;;5.47;63.66;101710.56;5058750;28;45354;-59
2023/11/25 01:42:18;;;;;;;;;2.00;2.00;;;;;5.46;63.28;101722.91;5057943;28;45522;-59
2023/11/25 01:44:44;;;;;;;;;1.00;1.00;;;;;5.46;63.48;101727.31;5057893;28;45341;-59
2023/11/25 01:47:09;;;;;;;;;4.00;1.33;;;;;5.46;63.75;101720.28;5059299;28;59734;-59
2023/11/25 01:49:35;;;;;;;;;3.67;1.67;;;;;5.45;63.90;101715.88;5059828;28;45421;-59
2023/11/25 01:52:01;;;;;;;;;2.00;1.00;;;;;5.45;64.14;101721.16;5052108;28;54278;-59
2023/11/25 01:54:26;;;;;;;;;2.00;2.00;;;;;5.45;63.99;101715.88;5055141;28;72220;-59
2023/11/25 01:56:55;;;;;;;;;1.00;1.00;;;;;5.46;64.13;101724.66;5058930;28;45346;-59
2023/11/25 01:59:23;;;;;;;;;1.00;1.00;;;;;5.45;64.00;101721.16;5040436;28;45686;-59
2023/11/25 02:01:49;;;;;;;;;2.67;2.00;;;;;5.43;64.11;101720.31;5057179;28;45973;-59
2023/11/25 02:04:14;;;;;;;;;2.00;1.00;;;;;5.43;64.42;101722.94;5056394;28;75529;-59
2023/11/25 02:06:39;;;;;;;;;1.67;1.00;;;;;5.43;63.68;101720.31;5061559;28;55645;-60
2023/11/25 02:09:05;;;;;;;;;2.00;1.00;;;;;5.41;64.03;101724.75;5090659;27;69016;-59
2023/11/25 02:11:30;;;;;;;;;0.67;0.67;;;;;5.41;64.42;101721.22;5040114;28;45498;-59
2023/11/25 02:13:56;;;;;;;;;4.67;2.00;;;;;5.41;64.25;101732.66;5058124;28;46667;-59
2023/11/25 02:16:21;;;;;;;;;1.00;1.00;;;;;5.40;64.38;101730.91;5057123;28;72124;-59
2023/11/25 02:18:47;;;;;;;;;2.00;2.00;;;;;5.39;64.71;101723.88;5056712;28;68443;-59
2023/11/25 02:21:13;;;;;;;;;0.33;0.33;;;;;5.38;64.69;101723.91;5057556;28;45565;-59
2023/11/25 02:23:39;;;;;;;;;1.67;1.67;;;;;5.36;64.48;101715.13;5055391;28;45588;-59
2023/11/25 02:26:04;;;;;;;;;2.00;2.00;;;;;5.35;64.71;101716.03;5055963;28;46155;-59
2023/11/25 02:28:30;;;;;;;;;1.00;1.00;;;;;5.34;64.92;101715.16;5069624;28;45423;-59
2023/11/25 02:30:56;;;;;;;;;1.00;1.00;;;;;5.34;64.78;101714.28;5057843;28;45509;-59
2023/11/25 02:33:22;;;;;;;;;2.67;1.00;;;;;5.35;65.02;101721.31;5062775;28;45329;-59
2023/11/25 02:35:47;;;;;;;;;3.33;1.00;;;;;5.33;64.85;101718.69;5056096;28;45454;-59
2023/11/25 02:38:14;;;;;;;;;1.00;1.00;;;;;5.33;65.03;101723.09;5056158;28;45354;-59
2023/11/25 02:40:43;;;;;;;;;1.00;1.00;;;;;5.30;65.24;101718.72;5056703;28;45404;-59
2023/11/25 02:43:08;;;;;;;;;3.00;1.00;;;;;5.29;64.65;101719.63;5053372;28;46005;-59
2023/11/25 02:45:34;;;;;;;;;2.00;1.67;;;;;5.28;65.33;101721.41;5045785;28;46018;-59
2023/11/25 02:47:59;;;;;;;;;1.33;1.33;;;;;5.27;65.05;101713.50;5068167;28;68026;-59
2023/11/25 02:50:25;;;;;;;;;1.33;1.33;;;;;5.26;65.43;101719.66;5056879;28;45597;-59
2023/11/25 02:52:50;;;;;;;;;2.67;1.00;;;;;5.25;65.07;101713.53;5059313;28;45454;-59
2023/11/25 02:55:16;;;;;;;;;2.00;2.00;;;;;5.23;65.47;101715.31;5057262;28;45611;-59
2023/11/25 02:57:43;;;;;;;;;4.00;2.00;;;;;5.23;65.19;101725.00;5053496;28;67821;-59
2023/11/25 03:02:49;;;;;;;;;0.67;0.67;;;;;5.21;65.79;101711.81;5053716;28;45541;-59
2023/11/25 03:05:14;;;;;;;;;2.00;2.00;;;;;5.19;65.48;101718.00;5058545;28;45441;-59
2023/11/25 03:07:41;;;;;;;;;1.00;1.00;;;;;5.17;65.82;101718.00;5060832;28;51542;-59
2023/11/25 03:10:07;;;;;;;;;3.00;2.00;;;;;5.18;66.10;101709.22;5059289;28;45509;-59
2023/11/25 03:12:32;;;;;;;;;2.00;1.00;;;;;5.18;65.86;101714.50;5060132;28;45349;-59
2023/11/25 03:14:58;;;;;;;;;1.00;1.00;;;;;5.19;66.18;101713.59;5057750;28;45602;-59
2023/11/25 03:17:23;;;;;;;;;1.00;1.00;;;;;5.19;65.99;101708.34;5063730;28;45360;-59
2023/11/25 03:19:48;;;;;;;;;1.00;1.00;;;;;5.19;66.03;101704.78;5058247;28;68447;-58
2023/11/25 03:22:14;;;;;;;;;2.00;0.00;;;;;5.17;66.30;101702.19;5058720;28;46156;-59
2023/11/25 03:24:41;;;;;;;;;1.00;1.00;;;;;5.17;66.25;101704.81;5060675;28;45874;-59
2023/11/25 03:27:06;;;;;;;;;1.00;0.00;;;;;5.18;66.10;101709.22;5093082;27;45711;-59
2023/11/25 03:29:32;;;;;;;;;1.00;1.00;;;;;5.16;66.13;101707.50;5059464;28;45630;-59
2023/11/25 03:31:58;;;;;;;;;2.00;2.00;;;;;5.14;66.02;101712.78;5057824;28;59653;-59
2023/11/25 03:34:23;;;;;;;;;2.67;1.33;;;;;5.13;66.82;101716.31;5060436;28;45422;-59
2023/11/25 03:36:48;;;;;;;;;2.33;2.00;;;;;5.16;66.78;101711.00;5059817;28;64616;-59
2023/11/25 03:39:14;;;;;;;;;1.67;1.67;;;;;5.14;66.24;101712.78;5060301;28;70529;-59
2023/11/25 03:41:39;;;;;;;;;2.67;2.67;;;;;5.10;67.33;101714.59;5059179;28;71465;-59
2023/11/25 03:44:06;;;;;;;;;2.67;2.67;;;;;5.04;66.39;101706.75;5055882;28;72135;-59
2023/11/25 03:46:33;;;;;;;;;4.00;2.33;;;;;4.97;66.90;101715.63;5081691;27;45426;-59
2023/11/25 03:48:58;;;;;;;;;3.33;3.00;;;;;4.91;66.90;101715.69;5057635;28;45616;-59
2023/11/25 03:51:24;;;;;;;;;1.00;1.00;;;;;4.85;67.17;101715.78;5062558;28;45506;-59
2023/11/25 03:53:49;;;;;;;;;4.67;2.00;;;;;4.83;67.21;101722.84;5058815;28;45885;-59
2023/11/25 03:56:16;;;;;;;;;3.00;3.00;;;;;4.81;67.52;101717.59;5052920;28;45365;-59
2023/11/25 03:58:41;;;;;;;;;3.00;3.00;;;;;4.82;67.23;101726.34;5058052;28;45457;-59
2023/11/25 04:01:06;;;;;;;;;2.00;2.00;;;;;4.84;67.30;101719.28;5092082;27;65211;-59
2023/11/25 04:03:35;;;;;;;;;4.33;2.00;;;;;4.85;67.39;101721.94;5058428;28;45435;-59
2023/11/25 04:06:02;;;;;;;;;2.00;2.00;;;;;4.88;67.39;101732.44;5061081;28;45366;-59
2023/11/25 04:08:28;;;;;;;;;2.00;2.00;;;;;4.88;67.44;101721.03;5062775;28;45272;-59
2023/11/25 04:10:53;;;;;;;;;1.33;1.00;;;;;4.88;67.49;101735.06;5094401;27;70403;-59
2023/11/25 04:13:18;;;;;;;;;5.00;2.00;;;;;4.88;68.01;101731.56;5059378;27;71475;-59
2023/11/25 04:15:44;;;;;;;;;1.33;1.00;;;;;4.88;68.06;101724.53;5091276;27;68274;-59
2023/11/25 04:18:09;;;;;;;;;4.33;3.00;;;;;4.89;67.62;101726.28;5065885;28;45662;-59
2023/11/25 04:20:34;;;;;;;;;1.00;1.00;;;;;4.90;68.30;101724.50;5059015;28;74324;-59
2023/11/25 04:23:05;;;;;;;;;2.00;2.00;;;;;4.91;67.49;101718.34;5059227;28;73461;-59
2023/11/25 04:25:32;;;;;;;;;1.00;1.00;;;;;4.91;67.66;101719.19;5064570;28;45454;-59
2023/11/25 04:27:57;;;;;;;;;2.00;2.00;;;;;4.93;68.04;101721.84;5058350;28;45566;-59
2023/11/25 04:30:23;;;;;;;;;3.67;2.00;;;;;4.92;67.77;101714.81;5057585;28;75230;-59
2023/11/25 04:32:48;;;;;;;;;1.67;1.67;;;;;4.93;68.04;101716.56;5050635;28;45628;-59
2023/11/25 04:35:14;;;;;;;;;5.00;3.00;;;;;4.93;67.76;101714.78;5055321;28;45291;-59
2023/11/25 04:37:43;;;;;;;;;3.00;3.00;;;;;4.94;68.29;101719.19;5059660;28;45476;-59
2023/11/25 04:40:11;;;;;;;;;3.00;1.33;;;;;4.94;68.06;101718.28;5055352;28;47283;-59
2023/11/25 04:42:37;;;;;;;;;4.00;3.00;;;;;4.92;68.59;101713.03;5057407;28;45568;-59
2023/11/25 04:45:03;;;;;;;;;2.00;2.00;;;;;4.92;68.18;101718.31;5060083;28;45468;-59
2023/11/25 04:47:28;;;;;;;;;2.67;2.00;;;;;4.92;68.45;101728.88;5058204;28;45324;-59
2023/11/25 04:49:54;;;;;;;;;2.33;2.33;;;;;4.91;68.25;101727.09;5060146;28;74768;-59
2023/11/25 04:52:20;;;;;;;;;2.67;1.00;;;;;4.94;68.10;101728.84;5060111;28;45426;-59
2023/11/25 04:54:46;;;;;;;;;2.33;2.33;;;;;4.94;68.80;101729.72;5060873;28;45498;-59
2023/11/25 04:57:12;;;;;;;;;1.00;1.00;;;;;4.94;68.78;101732.38;5068704;28;45358;-59
2023/11/25 04:59:37;;;;;;;;;4.00;2.00;;;;;4.93;68.57;101724.47;5050874;28;46331;-58
2023/11/25 05:02:04;;;;;;;;;2.00;2.00;;;;;4.93;69.07;101733.25;5057935;28;47789;-59
2023/11/25 05:04:29;;;;;;;;;1.33;1.00;;;;;4.94;68.39;101728.84;5059020;28;45458;-59
2023/11/25 05:06:55;;;;;;;;;4.00;4.00;;;;;4.94;68.64;101732.38;5058149;28;45407;-60
2023/11/25 05:09:20;;;;;;;;;3.00;1.00;;;;;4.96;68.73;101732.34;5056725;28;45689;-59
2023/11/25 05:11:45;;;;;;;;;4.00;2.00;;;;;5.00;68.88;101735.81;5056787;28;46134;-59
2023/11/25 05:14:11;;;;;;;;;4.00;3.00;;;;;5.02;68.77;101732.28;5059115;28;45432;-59
2023/11/25 05:16:36;;;;;;;;;1.33;1.33;;;;;5.06;68.68;101731.34;5056481;28;45406;-59
2023/11/25 05:19:02;;;;;;;;;4.67;1.00;;;;;5.10;68.75;101727.78;5053755;28;46354;-59
2023/11/25 05:21:28;;;;;;;;;2.00;2.00;;;;;5.12;68.72;101735.66;5056641;28;45497;-59
2023/11/25 05:23:53;;;;;;;;;2.00;2.00;;;;;5.14;68.51;101740.03;5057915;28;45441;-59
2023/11/25 05:26:19;;;;;;;;;2.00;2.00;;;;;5.14;69.01;101731.25;5056603;28;70008;-59
2023/11/25 05:28:44;;;;;;;;;3.33;1.33;;;;;5.12;68.71;101727.75;5057195;28;47746;-59
2023/11/25 05:31:09;;;;;;;;;3.00;2.33;;;;;5.10;68.73;101730.41;5055838;28;71011;-59
2023/11/25 05:33:35;;;;;;;;;2.00;2.00;;;;;5.08;68.80;101740.09;5061016;28;52869;-59
2023/11/25 05:36:00;;;;;;;;;2.00;2.00;;;;;5.06;69.07;101741.00;5055492;28;45299;-60
2023/11/25 05:38:28;;;;;;;;;3.00;2.00;;;;;5.03;69.39;101738.41;5059176;28;46789;-59
2023/11/25 05:40:53;;;;;;;;;4.33;1.67;;;;;4.97;69.19;101737.59;5056667;28;45355;-59
2023/11/25 05:43:19;;;;;;;;;3.00;1.00;;;;;4.95;69.34;101739.41;5057850;28;45434;-59
2023/11/25 05:45:46;;;;;;;;;2.00;2.00;;;;;4.93;69.46;101748.22;5058406;28;45401;-59
2023/11/25 05:48:12;;;;;;;;;2.00;2.00;;;;;4.92;69.73;101741.19;5057896;28;46914;-59
2023/11/25 05:50:37;;;;;;;;;3.00;1.00;;;;;4.92;69.87;101743.81;5056737;28;45425;-59
2023/11/25 05:53:03;;;;;;;;;1.67;1.00;;;;;4.90;69.78;101750.88;5056620;28;45752;-59
2023/11/25 05:55:29;;;;;;;;;1.00;1.00;;;;;4.90;70.11;101749.13;5058285;28;45346;-60
2023/11/25 05:57:55;;;;;;;;;3.00;3.00;;;;;4.87;69.64;101745.63;5058024;28;46127;-59
2023/11/25 06:00:21;;;;;;;;;1.67;1.67;;;;;4.85;69.87;101745.66;5039754;28;45308;-59
2023/11/25 06:02:46;;;;;;;;;4.00;2.00;;;;;4.83;70.31;101744.78;5057347;28;45730;-59
2023/11/25 06:05:12;;;;;;;;;4.00;3.00;;;;;4.83;70.29;101750.06;5057544;28;53635;-59
2023/11/25 06:07:38;;;;;;;;;4.00;2.67;;;;;4.82;70.19;101753.59;5058225;28;45421;-59
2023/11/25 06:10:04;;;;;;;;;2.00;2.00;;;;;4.80;70.45;101752.75;5038808;28;45449;-59
2023/11/25 06:12:31;;;;;;;;;3.00;1.00;;;;;4.78;69.85;101752.78;5058345;28;45529;-59
2023/11/25 06:14:57;;;;;;;;;3.67;3.00;;;;;4.76;71.02;101751.03;5055501;28;46852;-59
2023/11/25 06:17:23;;;;;;;;;3.33;2.00;;;;;4.72;70.58;101747.56;5057365;28;47104;-59
2023/11/25 06:19:52;;;;;;;;;2.00;2.00;;;;;4.71;70.54;101744.94;5057000;28;45490;-59
2023/11/25 06:22:17;;;;;;;;;2.00;2.00;;;;;4.69;70.98;101742.28;5092939;27;45512;-59
2023/11/25 06:24:43;;;;;;;;;2.33;2.33;;;;;4.70;70.86;101746.69;5057725;28;45430;-59
2023/11/25 06:27:08;;;;;;;;;3.00;3.00;;;;;4.71;71.45;101750.22;5056148;28;72260;-60
2023/11/25 06:29:33;;;;;;;;;3.00;2.00;;;;;4.71;71.00;101745.81;5056308;28;73227;-59
2023/11/25 06:31:59;;;;;;;;;2.67;2.67;;;;;4.70;71.10;101751.09;5057071;28;46073;-59
2023/11/25 06:34:24;;;;;;;;;3.00;3.00;;;;;4.67;71.07;101754.63;5054200;28;45423;-62
2023/11/25 06:36:49;;;;;;;;;2.33;2.33;;;;;4.65;71.02;101759.03;5059544;28;45810;-59
2023/11/25 06:39:19;;;;;;;;;2.00;2.00;;;;;4.65;71.20;101761.66;5068136;27;45430;-59
2023/11/25 06:41:48;;;;;;;;;2.67;2.67;;;;;4.62;71.54;101752.03;5096101;27;45786;-59
2023/11/25 06:44:15;;;;;;;;;5.67;3.00;;;;;4.62;71.11;101761.72;5061023;28;45468;-59
2023/11/25 06:46:40;;;;;;;;;3.00;3.00;;;;;4.59;71.73;101756.47;5060708;28;45504;-59
2023/11/25 06:49:07;;;;;;;;;4.00;3.00;;;;;4.58;71.03;101765.28;5041330;28;73604;-59
2023/11/25 06:51:32;;;;;;;;;2.00;2.00;;;;;4.57;71.49;101766.16;5061693;28;45378;-59
2023/11/25 06:53:58;;;;;;;;;2.00;2.00;;;;;4.55;72.02;101762.66;5057660;28;45578;-59
2023/11/25 06:56:23;;;;;;;;;3.00;2.00;;;;;4.53;71.73;101767.94;5064890;27;45423;-59
2023/11/25 06:58:48;;;;;;;;;2.67;2.67;;;;;4.52;71.78;101771.44;5067011;28;71861;-59
2023/11/25 07:01:18;;;;;;;;;3.33;1.67;;;;;4.52;72.30;101765.31;5059709;28;69692;-59
2023/11/25 07:03:45;;;;;;;;;5.00;3.33;;;;;4.53;71.52;101772.34;5064722;28;45705;-59
2023/11/25 07:06:10;;;;;;;;;4.00;3.67;;;;;4.53;72.09;101772.34;5060527;28;46457;-59
2023/11/25 07:08:35;;;;;;;;;4.00;3.00;;;;;4.52;72.22;101768.81;5046321;28;45871;-59
2023/11/25 07:11:04;;;;;;;;;3.67;2.33;;;;;4.53;71.99;101767.94;5063107;28;45652;-59
2023/11/25 07:13:30;;;;;;;;;5.00;4.00;;;;;4.54;72.39;101766.19;5065027;28;45378;-59
2023/11/25 07:15:56;;;;;;;;;4.67;3.00;;;;;4.56;72.35;101767.94;5055586;28;45279;-59
2023/11/25 07:18:22;;;;;;;;;3.00;1.00;;;;;4.57;72.78;101758.25;5061184;28;45299;-60
2023/11/25 07:20:48;;;;;;;;;4.00;2.00;;;;;4.58;72.54;101767.91;5069447;27;46599;-58
2023/11/25 07:23:14;;;;;;;;;5.67;2.33;;;;;4.59;72.87;101762.63;5062660;28;45790;-58
2023/11/25 07:25:41;;;;;;;;;4.67;2.33;;;;;4.59;73.00;101767.88;5057550;28;45538;-58
2023/11/25 07:28:09;;;;;;;;;7.33;4.00;;;;;4.60;72.73;101760.84;5058800;28;45462;-59
2023/11/25 07:30:36;;;;;;;;;5.33;3.67;;;;;4.62;72.67;101765.22;5067766;28;45458;-59
2023/11/25 07:33:03;;;;;;;;;3.67;2.67;;;;;4.65;72.74;101769.56;5066702;28;45385;-58
2023/11/25 07:35:29;;;;;;;;;3.33;3.00;;;;;4.69;73.16;101767.78;5059494;28;45426;-58
2023/11/25 07:37:54;;;;;;;;;4.00;3.33;;;;;4.71;73.18;101761.63;5066800;28;45381;-59
2023/11/25 07:40:19;;;;;;;;;0.00;0.00;;;;;4.72;72.98;101773.91;5060846;28;45415;-59
2023/11/25 07:42:48;;;;;;;;;7.00;3.67;;;;;4.75;73.12;101773.88;5054003;28;69424;-59
2023/11/25 07:45:14;;;;;;;;;1.67;1.67;;;;;4.78;72.85;101775.59;5057581;28;47503;-59
2023/11/25 07:47:43;;;;;;;;;8.00;5.00;;;;;4.79;73.29;101775.56;5057763;28;45506;-59
2023/11/25 07:50:12;;;;;;;;;7.00;3.00;;;;;4.83;73.30;101778.19;5057628;28;45650;-59
2023/11/25 07:52:38;;;;;;;;;3.67;3.67;;;;;4.86;73.26;101780.78;5061484;28;45251;-59
2023/11/25 07:55:08;;;;;;;;;4.33;4.33;;;;;4.89;73.43;101780.75;5062406;28;61607;-59
2023/11/25 07:57:34;;;;;;;;;8.00;4.00;;;;;4.92;73.12;101778.97;5061278;28;45346;-59
2023/11/25 07:59:59;;;;;;;;;3.33;2.67;;;;;4.95;72.70;101778.94;5057448;28;59247;-59
2023/11/25 08:02:24;;;;;;;;;12.00;9.67;;;;;4.99;72.14;101779.75;5061663;28;69207;-59
2023/11/25 08:04:51;;;;;;;;;6.00;4.00;;;;;5.00;72.66;101783.28;5071007;27;75549;-59
2023/11/25 08:07:17;;;;;;;;;9.33;5.00;;;;;5.01;72.59;101783.28;5058666;28;45487;-60
2023/11/25 08:09:42;;;;;;;;;5.67;4.00;;;;;5.04;72.59;101787.63;5060454;28;45584;-59
2023/11/25 08:12:08;;;;;;;;;11.00;3.67;;;;;5.04;72.57;101775.31;5063401;28;45457;-59
2023/11/25 08:14:33;;;;;;;;;5.00;3.00;;;;;5.08;72.51;101782.28;5067051;28;45478;-59
2023/11/25 08:16:59;;;;;;;;;7.00;5.00;;;;;5.10;72.64;101782.31;5061676;28;45279;-59
2023/11/25 08:19:25;;;;;;;;;4.67;4.00;;;;;5.13;73.16;101783.13;5063903;28;45324;-59
2023/11/25 08:21:50;;;;;;;;;4.00;4.00;;;;;5.17;72.58;101785.72;5059567;28;45390;-59
2023/11/25 08:24:17;;;;;;;;;8.00;4.00;;;;;5.18;72.84;101783.06;5049407;28;48606;-59
2023/11/25 08:26:43;;;;;;;;;6.00;4.00;;;;;5.20;72.53;101773.38;5061754;28;45434;-59
2023/11/25 08:29:09;;;;;;;;;5.00;4.00;;;;;5.24;73.25;101776.84;5063092;28;45663;-60
2023/11/25 08:31:34;;;;;;;;;4.00;4.00;;;;;5.27;73.25;101775.03;5047479;28;45716;-59
2023/11/25 08:34:09;;;;;;;;;20.67;10.67;;;;;5.30;73.16;101782.06;5091208;27;46470;-60
2023/11/25 08:36:47;;;;;;;;;8.67;7.67;;;;;5.33;73.13;101782.00;5058640;28;45528;-59
2023/11/25 08:39:13;;;;;;;;;9.00;9.00;;;;;5.36;73.10;101770.53;5060410;28;45602;-59
2023/11/25 08:41:45;;;;;;;;;7.67;7.67;;;;;5.40;73.18;101777.53;5069199;28;45418;-58
2023/11/25 08:44:13;;;;;;;;;15.33;8.67;;;;;5.42;73.24;101773.09;5061941;28;46601;-57
2023/11/25 08:46:40;;;;;;;;;38.33;35.67;;;;;5.44;73.32;101766.91;5079883;27;45615;-58
2023/11/25 08:49:06;;;;;;;;;12.67;12.00;;;;;5.48;72.91;101765.13;5058710;28;45553;-57
2023/11/25 08:51:32;;;;;;;;;10.67;9.00;;;;;5.52;73.17;101768.59;5061450;28;45825;-57
2023/11/25 08:53:57;;;;;;;;;10.33;9.00;;;;;5.56;72.69;101767.66;5064545;28;45586;-58
2023/11/25 08:56:25;;;;;;;;;11.33;10.00;;;;;5.58;73.10;101771.13;5063396;27;73342;-58
2023/11/25 08:58:50;;;;;;;;;6.33;6.33;;;;;5.61;73.09;101773.75;5056422;28;45417;-58
2023/11/25 09:01:15;;;;;;;;;8.33;6.33;;;;;5.64;73.42;101776.31;5057141;28;45577;-58
2023/11/25 09:03:41;;;;;;;;;7.33;5.00;;;;;5.69;72.91;101773.63;5056490;28;75408;-58
2023/11/25 09:06:07;;;;;;;;;6.33;5.00;;;;;5.72;73.21;101782.41;5056186;28;71604;-59
2023/11/25 09:08:32;;;;;;;;;8.00;6.33;;;;;5.78;72.87;101777.00;5058749;28;45302;-57
2023/11/25 09:10:58;;;;;;;;;4.67;4.67;;;;;5.83;73.37;101776.06;5063165;28;45759;-57
2023/11/25 09:13:23;;;;;;;;;9.33;8.00;;;;;5.86;73.00;101776.88;5059487;28;46717;-58
2023/11/25 09:15:50;;;;;;;;;7.67;4.00;;;;;5.90;72.96;101783.00;5057340;28;47754;-57
2023/11/25 09:18:16;;;;;;;;;13.67;10.67;;;;;6.01;72.51;101777.59;5061690;28;45529;-55
2023/11/25 09:20:42;;;;;;;;;10.67;8.00;;;;;6.25;72.82;101771.06;5047652;28;45405;-55
2023/11/25 09:23:07;;;;;;;;;12.00;12.00;;;;;6.49;72.40;101774.16;5066343;28;45690;-56
2023/11/25 09:25:32;;;;;;;;;10.67;7.67;;;;;6.67;72.30;101767.69;5051283;28;47149;-56
2023/11/25 09:27:58;;;;;;;;;6.67;6.33;;;;;6.77;71.55;101770.13;5057774;28;69676;-55
2023/11/25 09:30:23;;;;;;;;;12.67;11.00;;;;;6.83;71.44;101770.91;5058965;28;45328;-55
2023/11/25 09:32:49;;;;;;;;;15.33;14.00;;;;;6.84;71.45;101772.66;5059541;28;45497;-56
2023/11/25 09:35:14;;;;;;;;;11.00;11.00;;;;;6.83;71.44;101766.50;5059083;28;45595;-55
2023/11/25 09:37:41;;;;;;;;;13.67;12.00;;;;;7.14;71.82;101765.88;5060518;28;45609;-57
2023/11/25 09:40:14;;;;;;;;;9.33;5.67;;;;;8.26;71.41;101767.78;5056420;28;45590;-60
2023/11/25 09:42:39;;;;;;;;;8.00;8.00;;;;;9.67;70.40;101753.28;5057125;28;46223;-60
2023/11/25 09:45:05;;;;;;;;;9.00;9.00;;;;;10.91;67.49;101755.41;5058015;28;45337;-60
2023/11/25 09:47:30;;;;;;;;;6.67;3.67;;;;;11.92;66.21;101755.09;5054685;28;45401;-60
2023/11/25 09:49:56;;;;;;;;;5.00;5.00;;;;;12.83;63.87;101758.44;5059418;28;70414;-60
2023/11/25 09:52:23;;;;;;;;;6.00;4.00;;;;;13.59;61.64;101760.38;5057966;28;75647;-59
2023/11/25 09:54:54;;;;;;;;;9.33;7.00;;;;;14.23;59.45;101753.66;5061228;28;45422;-59
2023/11/25 09:57:20;;;;;;;;;8.00;7.67;;;;;14.85;59.00;101755.91;5059027;28;45446;-61
2023/11/25 09:59:46;;;;;;;;;8.33;6.67;;;;;15.31;57.43;101755.22;5043379;28;45650;-60
2023/11/25 10:02:13;;;;;;;;;5.33;5.33;;;;;15.62;56.01;101755.31;5059233;28;45718;-60
2023/11/25 10:04:39;;;;;;;;;8.00;7.33;;;;;15.95;54.26;101757.09;5057851;28;45390;-60
2023/11/25 10:07:06;;;;;;;;;4.00;4.00;;;;;16.13;52.84;101752.47;5058106;28;45910;-60
2023/11/25 10:09:37;;;;;;;;;2.00;1.00;;;;;16.31;53.54;101758.56;5058616;28;45709;-60
2023/11/25 10:12:03;;;;;;;;;4.33;4.33;;;;;16.43;52.64;101755.16;5080644;27;45535;-61
2023/11/25 10:14:31;;;;;;;;;3.00;3.00;;;;;16.61;52.57;101757.69;5089877;27;45482;-61
2023/11/25 10:16:57;;;;;;;;;13.00;7.67;;;;;16.77;48.67;101747.75;5059958;28;45413;-61
2023/11/25 10:19:23;;;;;;;;;4.67;4.67;;;;;16.86;47.72;101733.75;5065289;28;45422;-61
2023/11/25 10:21:50;;;;;;;;;4.00;3.00;;;;;16.95;50.29;101740.41;5060728;28;45400;-61
2023/11/25 10:24:17;;;;;;;;;6.00;5.67;;;;;17.07;52.18;101745.97;5058191;28;45392;-61
2023/11/25 10:26:43;;;;;;;;;4.67;4.33;;;;;17.16;51.52;101750.78;5060822;28;45441;-61
2023/11/25 10:29:11;;;;;;;;;4.00;4.00;;;;;17.24;47.94;101748.47;5075318;27;46041;-61
2023/11/25 10:31:39;;;;;;;;;6.00;5.67;;;;;17.26;50.90;101748.34;5059541;28;46108;-62
2023/11/25 10:34:10;;;;;;;;;4.00;4.00;;;;;17.23;49.61;101744.03;5059077;28;45512;-62
2023/11/25 10:36:36;;;;;;;;;5.00;3.33;;;;;17.16;48.19;101745.41;5057122;28;45477;-62
2023/11/25 10:39:03;;;;;;;;;3.33;3.00;;;;;17.08;47.83;101743.19;5058578;28;45374;-62
2023/11/25 10:41:29;;;;;;;;;4.00;4.00;;;;;17.08;48.94;101734.25;5058518;28;46502;-62
2023/11/25 10:43:54;;;;;;;;;3.00;3.00;;;;;17.02;46.21;101732.81;5056703;28;46231;-62
2023/11/25 10:46:19;;;;;;;;;2.67;2.67;;;;;17.02;46.00;101722.91;5059935;28;66056;-62
2023/11/25 10:48:45;;;;;;;;;4.33;2.33;;;;;17.10;47.56;101724.28;5058428;28;69393;-62
2023/11/25 10:51:12;;;;;;;;;4.67;3.00;;;;;17.17;48.12;101726.47;5060485;28;46214;-62
2023/11/25 10:53:39;;;;;;;;;2.00;2.00;;;;;17.10;46.15;101725.13;5058948;28;45348;-62
2023/11/25 10:56:05;;;;;;;;;5.33;3.67;;;;;17.00;47.01;101721.28;5059514;28;45457;-62
2023/11/25 10:58:30;;;;;;;;;5.00;3.00;;;;;16.56;48.47;101720.38;5059424;28;45575;-62
2023/11/25 11:01:00;;;;;;;;;5.33;3.67;;;;;16.13;48.04;101717.59;5059334;28;64127;-61
2023/11/25 11:03:55;;;;;;;;;3.67;2.00;;;;;15.46;46.76;101720.47;5059716;28;45396;-61
2023/11/25 11:06:25;;;;;;;;;1.25;1.25;;;;;14.83;47.79;101716.75;5059502;28;45466;-61
2023/11/25 11:08:52;;;;;;;;;2.00;2.00;;;;;14.58;48.36;101709.13;5045335;28;45423;-61
2023/11/25 11:11:31;;;;;;;;;3.00;2.67;;;;;14.42;49.99;101709.91;5060872;28;47075;-60
2023/11/25 11:14:13;;;;;;;;;4.33;2.00;;;;;14.46;50.41;101713.31;5053417;28;45650;-61
2023/11/25 11:16:44;;;;;;;;;2.00;2.00;;;;;14.51;49.81;101713.91;5058142;28;45821;-61
2023/11/25 11:19:10;;;;;;;;;3.00;1.33;;;;;14.77;49.47;101701.00;5059468;28;45410;-60
2023/11/25 11:21:39;;;;;;;;;2.00;2.00;;;;;14.76;49.09;101710.84;5061451;28;57367;-60
2023/11/25 11:24:06;;;;;;;;;5.00;2.00;;;;;14.59;48.49;101713.50;5060039;28;45418;-61
2023/11/25 11:26:37;;;;;;;;;1.00;1.00;;;;;14.52;49.13;101712.97;5057503;28;45373;-61
2023/11/25 11:29:28;;;;;;;;;4.33;1.67;;;;;14.22;48.44;101718.97;5058042;28;45914;-61